sensor_id;sensor_type;location;lat;lon;timestamp;P1;durP1;ratioP1;P2;durP2;ratioP2
39434;SDS011;30098;51.880;-0.518;2022-09-24T00:01:45;0.98;;;0.68;;
39434;SDS011;30098;51.880;-0.518;2022-09-24T00:04:10;1.45;;;0.80;;
39434;SDS011;30098;51.880;-0.518;2022-09-24T00:06:44;1.83;;;0.80;;
39434;SDS011;30098;51.880;-0.518;2022-09-24T00:09:12;0.95;;;0.73;;
39434;SDS011;30098;51.880;-0.518;2022-09-24T00:11:40;0.90;;;0.70;;
39434;SDS011;30098;51.880;-0.518;2022-09-24T00:14:08;1.05;;;0.85;;
39434;SDS011;30098;51.880;-0.518;2022-09-24T00:16:34;1.58;;;0.90;;
39434;SDS011;30098;51.880;-0.518;2022-09-24T00:19:00;1.63;;;0.68;;
39434;SDS011;30098;51.880;-0.518;2022-09-24T00:21:28;0.80;;;0.60;;
39434;SDS011;30098;51.880;-0.518;2022-09-24T00:23:56;0.90;;;0.63;;
39434;SDS011;30098;51.880;-0.518;2022-09-24T00:26:23;1.20;;;0.80;;
39434;SDS011;30098;51.880;-0.518;2022-09-24T00:29:08;1.00;;;0.70;;
39434;SDS011;30098;51.880;-0.518;2022-09-24T00:31:36;1.58;;;0.90;;
39434;SDS011;30098;51.880;-0.518;2022-09-24T00:34:02;1.70;;;0.80;;
39434;SDS011;30098;51.880;-0.518;2022-09-24T00:36:28;1.00;;;0.90;;
39434;SDS011;30098;51.880;-0.518;2022-09-24T00:38:55;1.02;;;0.77;;
39434;SDS011;30098;51.880;-0.518;2022-09-24T00:41:22;0.90;;;0.70;;
39434;SDS011;30098;51.880;-0.518;2022-09-24T00:43:53;1.00;;;0.80;;
39434;SDS011;30098;51.880;-0.518;2022-09-24T00:49:09;0.70;;;0.65;;
39434;SDS011;30098;51.880;-0.518;2022-09-24T00:51:37;1.45;;;0.80;;
39434;SDS011;30098;51.880;-0.518;2022-09-24T00:54:07;1.02;;;0.82;;
39434;SDS011;30098;51.880;-0.518;2022-09-24T00:56:37;1.17;;;0.75;;
39434;SDS011;30098;51.880;-0.518;2022-09-24T00:59:05;1.23;;;0.73;;
39434;SDS011;30098;51.880;-0.518;2022-09-24T01:01:36;0.90;;;0.70;;
39434;SDS011;30098;51.880;-0.518;2022-09-24T01:04:01;1.13;;;0.70;;
39434;SDS011;30098;51.880;-0.518;2022-09-24T01:06:29;1.27;;;0.80;;
39434;SDS011;30098;51.880;-0.518;2022-09-24T01:08:55;1.30;;;0.85;;
39434;SDS011;30098;51.880;-0.518;2022-09-24T01:22:33;1.10;;;0.80;;
39434;SDS011;30098;51.880;-0.518;2022-09-24T01:28:23;1.23;;;0.73;;
39434;SDS011;30098;51.880;-0.518;2022-09-24T01:31:07;1.30;;;0.80;;
39434;SDS011;30098;51.880;-0.518;2022-09-24T01:33:48;1.15;;;0.80;;
39434;SDS011;30098;51.880;-0.518;2022-09-24T01:36:17;0.85;;;0.65;;
39434;SDS011;30098;51.880;-0.518;2022-09-24T01:38:45;1.20;;;0.80;;
39434;SDS011;30098;51.880;-0.518;2022-09-24T01:41:13;1.10;;;0.70;;
39434;SDS011;30098;51.880;-0.518;2022-09-24T01:43:41;1.13;;;0.80;;
39434;SDS011;30098;51.880;-0.518;2022-09-24T01:46:08;0.80;;;0.60;;
39434;SDS011;30098;51.880;-0.518;2022-09-24T01:48:37;1.00;;;0.70;;
39434;SDS011;30098;51.880;-0.518;2022-09-24T01:51:08;0.90;;;0.70;;
39434;SDS011;30098;51.880;-0.518;2022-09-24T01:53:43;1.27;;;1.00;;
39434;SDS011;30098;51.880;-0.518;2022-09-24T01:56:15;1.27;;;0.80;;
39434;SDS011;30098;51.880;-0.518;2022-09-24T01:59:49;0.73;;;0.60;;
39434;SDS011;30098;51.880;-0.518;2022-09-24T02:02:15;0.93;;;0.73;;
39434;SDS011;30098;51.880;-0.518;2022-09-24T02:05:56;1.20;;;0.80;;
39434;SDS011;30098;51.880;-0.518;2022-09-24T02:08:21;0.90;;;0.80;;
39434;SDS011;30098;51.880;-0.518;2022-09-24T02:10:50;1.27;;;0.70;;
39434;SDS011;30098;51.880;-0.518;2022-09-24T02:13:21;1.20;;;0.80;;
39434;SDS011;30098;51.880;-0.518;2022-09-24T02:15:49;0.88;;;0.63;;
39434;SDS011;30098;51.880;-0.518;2022-09-24T02:18:20;1.27;;;0.80;;
39434;SDS011;30098;51.880;-0.518;2022-09-24T02:20:50;1.35;;;0.80;;
39434;SDS011;30098;51.880;-0.518;2022-09-24T02:23:17;1.23;;;0.90;;
39434;SDS011;30098;51.880;-0.518;2022-09-24T02:25:48;0.95;;;0.75;;
39434;SDS011;30098;51.880;-0.518;2022-09-24T02:28:17;1.10;;;0.90;;
39434;SDS011;30098;51.880;-0.518;2022-09-24T02:30:45;0.90;;;0.70;;
39434;SDS011;30098;51.880;-0.518;2022-09-24T02:33:15;1.23;;;0.65;;
39434;SDS011;30098;51.880;-0.518;2022-09-24T02:36:01;1.58;;;0.80;;
39434;SDS011;30098;51.880;-0.518;2022-09-24T02:38:27;1.20;;;0.80;;
39434;SDS011;30098;51.880;-0.518;2022-09-24T02:40:52;1.20;;;0.80;;
39434;SDS011;30098;51.880;-0.518;2022-09-24T02:43:19;0.90;;;0.73;;
39434;SDS011;30098;51.880;-0.518;2022-09-24T02:45:45;1.10;;;0.75;;
39434;SDS011;30098;51.880;-0.518;2022-09-24T02:48:11;1.08;;;0.80;;
39434;SDS011;30098;51.880;-0.518;2022-09-24T02:50:36;0.90;;;0.70;;
39434;SDS011;30098;51.880;-0.518;2022-09-24T02:53:02;0.95;;;0.80;;
39434;SDS011;30098;51.880;-0.518;2022-09-24T02:55:27;1.27;;;0.82;;
39434;SDS011;30098;51.880;-0.518;2022-09-24T02:57:53;1.00;;;0.70;;
39434;SDS011;30098;51.880;-0.518;2022-09-24T03:00:18;1.20;;;0.70;;
39434;SDS011;30098;51.880;-0.518;2022-09-24T03:02:45;1.52;;;0.90;;
39434;SDS011;30098;51.880;-0.518;2022-09-24T03:05:12;1.20;;;0.90;;
39434;SDS011;30098;51.880;-0.518;2022-09-24T03:07:42;0.98;;;0.70;;
39434;SDS011;30098;51.880;-0.518;2022-09-24T03:10:08;1.08;;;0.77;;
39434;SDS011;30098;51.880;-0.518;2022-09-24T03:12:34;1.10;;;0.90;;
39434;SDS011;30098;51.880;-0.518;2022-09-24T03:14:59;0.75;;;0.60;;
39434;SDS011;30098;51.880;-0.518;2022-09-24T03:17:24;1.00;;;0.73;;
39434;SDS011;30098;51.880;-0.518;2022-09-24T03:19:51;1.13;;;0.80;;
39434;SDS011;30098;51.880;-0.518;2022-09-24T03:22:17;0.77;;;0.70;;
39434;SDS011;30098;51.880;-0.518;2022-09-24T03:24:42;1.23;;;0.80;;
39434;SDS011;30098;51.880;-0.518;2022-09-24T03:27:08;1.10;;;0.82;;
39434;SDS011;30098;51.880;-0.518;2022-09-24T03:29:34;1.73;;;0.70;;
39434;SDS011;30098;51.880;-0.518;2022-09-24T03:32:20;1.10;;;0.82;;
39434;SDS011;30098;51.880;-0.518;2022-09-24T03:34:45;1.13;;;0.90;;
39434;SDS011;30098;51.880;-0.518;2022-09-24T03:37:11;1.02;;;0.90;;
39434;SDS011;30098;51.880;-0.518;2022-09-24T03:39:36;0.98;;;0.70;;
39434;SDS011;30098;51.880;-0.518;2022-09-24T03:42:02;1.27;;;0.80;;
39434;SDS011;30098;51.880;-0.518;2022-09-24T03:44:27;1.00;;;0.80;;
39434;SDS011;30098;51.880;-0.518;2022-09-24T03:46:53;1.17;;;0.80;;
39434;SDS011;30098;51.880;-0.518;2022-09-24T03:49:18;1.55;;;1.13;;
39434;SDS011;30098;51.880;-0.518;2022-09-24T03:51:44;1.08;;;0.77;;
39434;SDS011;30098;51.880;-0.518;2022-09-24T03:54:10;1.23;;;0.85;;
39434;SDS011;30098;51.880;-0.518;2022-09-24T03:56:35;1.63;;;1.00;;
39434;SDS011;30098;51.880;-0.518;2022-09-24T03:59:01;1.08;;;0.80;;
39434;SDS011;30098;51.880;-0.518;2022-09-24T04:01:26;1.30;;;0.82;;
39434;SDS011;30098;51.880;-0.518;2022-09-24T04:03:55;1.63;;;0.88;;
39434;SDS011;30098;51.880;-0.518;2022-09-24T04:06:20;0.90;;;0.75;;
39434;SDS011;30098;51.880;-0.518;2022-09-24T04:08:46;1.38;;;0.80;;
39434;SDS011;30098;51.880;-0.518;2022-09-24T04:11:11;0.70;;;0.70;;
39434;SDS011;30098;51.880;-0.518;2022-09-24T04:13:37;1.40;;;0.80;;
39434;SDS011;30098;51.880;-0.518;2022-09-24T04:16:03;0.90;;;0.73;;
39434;SDS011;30098;51.880;-0.518;2022-09-24T04:18:29;1.02;;;0.80;;
39434;SDS011;30098;51.880;-0.518;2022-09-24T04:21:00;0.95;;;0.73;;
39434;SDS011;30098;51.880;-0.518;2022-09-24T04:23:26;0.90;;;0.70;;
39434;SDS011;30098;51.880;-0.518;2022-09-24T04:25:52;1.23;;;0.80;;
39434;SDS011;30098;51.880;-0.518;2022-09-24T04:28:18;1.10;;;0.82;;
39434;SDS011;30098;51.880;-0.518;2022-09-24T04:30:44;1.00;;;0.77;;
39434;SDS011;30098;51.880;-0.518;2022-09-24T04:33:09;0.80;;;0.80;;
39434;SDS011;30098;51.880;-0.518;2022-09-24T04:35:35;1.02;;;0.82;;
39434;SDS011;30098;51.880;-0.518;2022-09-24T04:38:01;0.80;;;0.70;;
39434;SDS011;30098;51.880;-0.518;2022-09-24T04:40:28;1.10;;;0.80;;
39434;SDS011;30098;51.880;-0.518;2022-09-24T04:42:54;1.45;;;0.80;;
39434;SDS011;30098;51.880;-0.518;2022-09-24T04:45:19;0.88;;;0.80;;
39434;SDS011;30098;51.880;-0.518;2022-09-24T04:47:46;1.35;;;0.80;;
39434;SDS011;30098;51.880;-0.518;2022-09-24T04:50:16;0.90;;;0.73;;
39434;SDS011;30098;51.880;-0.518;2022-09-24T04:52:42;0.85;;;0.70;;
39434;SDS011;30098;51.880;-0.518;2022-09-24T04:55:08;1.00;;;0.80;;
39434;SDS011;30098;51.880;-0.518;2022-09-24T04:57:34;1.10;;;0.80;;
39434;SDS011;30098;51.880;-0.518;2022-09-24T05:00:04;0.90;;;0.75;;
39434;SDS011;30098;51.880;-0.518;2022-09-24T05:02:31;1.27;;;0.90;;
39434;SDS011;30098;51.880;-0.518;2022-09-24T05:04:57;1.13;;;0.80;;
39434;SDS011;30098;51.880;-0.518;2022-09-24T05:07:23;1.00;;;0.80;;
39434;SDS011;30098;51.880;-0.518;2022-09-24T05:09:48;1.17;;;0.82;;
39434;SDS011;30098;51.880;-0.518;2022-09-24T05:12:14;1.00;;;0.80;;
39434;SDS011;30098;51.880;-0.518;2022-09-24T05:14:39;1.15;;;0.70;;
39434;SDS011;30098;51.880;-0.518;2022-09-24T05:17:05;0.90;;;0.80;;
39434;SDS011;30098;51.880;-0.518;2022-09-24T05:19:30;0.95;;;0.85;;
39434;SDS011;30098;51.880;-0.518;2022-09-24T05:21:56;0.85;;;0.70;;
39434;SDS011;30098;51.880;-0.518;2022-09-24T05:24:21;1.35;;;0.85;;
39434;SDS011;30098;51.880;-0.518;2022-09-24T05:26:46;0.80;;;0.77;;
39434;SDS011;30098;51.880;-0.518;2022-09-24T05:29:31;1.33;;;0.80;;
39434;SDS011;30098;51.880;-0.518;2022-09-24T05:31:56;1.23;;;0.90;;
39434;SDS011;30098;51.880;-0.518;2022-09-24T05:34:21;1.60;;;0.82;;
39434;SDS011;30098;51.880;-0.518;2022-09-24T05:36:47;1.35;;;0.82;;
39434;SDS011;30098;51.880;-0.518;2022-09-24T05:39:12;0.80;;;0.60;;
39434;SDS011;30098;51.880;-0.518;2022-09-24T05:41:38;0.90;;;0.80;;
39434;SDS011;30098;51.880;-0.518;2022-09-24T05:44:04;1.50;;;0.90;;
39434;SDS011;30098;51.880;-0.518;2022-09-24T05:46:30;0.80;;;0.73;;
39434;SDS011;30098;51.880;-0.518;2022-09-24T05:48:57;1.17;;;0.80;;
39434;SDS011;30098;51.880;-0.518;2022-09-24T05:51:22;1.00;;;0.80;;
39434;SDS011;30098;51.880;-0.518;2022-09-24T05:53:48;1.05;;;0.70;;
39434;SDS011;30098;51.880;-0.518;2022-09-24T05:56:14;0.82;;;0.70;;
39434;SDS011;30098;51.880;-0.518;2022-09-24T05:58:40;1.17;;;0.93;;
39434;SDS011;30098;51.880;-0.518;2022-09-24T06:01:06;1.05;;;0.88;;
39434;SDS011;30098;51.880;-0.518;2022-09-24T06:03:32;1.45;;;0.98;;
39434;SDS011;30098;51.880;-0.518;2022-09-24T06:05:58;0.88;;;0.80;;
39434;SDS011;30098;51.880;-0.518;2022-09-24T06:08:26;1.23;;;0.90;;
39434;SDS011;30098;51.880;-0.518;2022-09-24T06:10:57;1.00;;;0.82;;
39434;SDS011;30098;51.880;-0.518;2022-09-24T06:13:26;0.98;;;0.70;;
39434;SDS011;30098;51.880;-0.518;2022-09-24T06:15:53;1.05;;;0.70;;
39434;SDS011;30098;51.880;-0.518;2022-09-24T06:18:24;1.13;;;0.95;;
39434;SDS011;30098;51.880;-0.518;2022-09-24T06:20:49;0.82;;;0.70;;
39434;SDS011;30098;51.880;-0.518;2022-09-24T06:23:15;1.55;;;0.80;;
39434;SDS011;30098;51.880;-0.518;2022-09-24T06:25:40;1.40;;;0.88;;
39434;SDS011;30098;51.880;-0.518;2022-09-24T06:28:06;0.98;;;0.68;;
39434;SDS011;30098;51.880;-0.518;2022-09-24T06:30:32;1.27;;;0.80;;
39434;SDS011;30098;51.880;-0.518;2022-09-24T06:33:01;0.80;;;0.80;;
39434;SDS011;30098;51.880;-0.518;2022-09-24T06:35:40;0.77;;;0.70;;
39434;SDS011;30098;51.880;-0.518;2022-09-24T06:38:08;1.38;;;0.80;;
39434;SDS011;30098;51.880;-0.518;2022-09-24T06:40:35;0.80;;;0.73;;
39434;SDS011;30098;51.880;-0.518;2022-09-24T06:43:01;1.05;;;0.80;;
39434;SDS011;30098;51.880;-0.518;2022-09-24T06:45:27;0.95;;;0.80;;
39434;SDS011;30098;51.880;-0.518;2022-09-24T06:47:53;1.05;;;0.80;;
39434;SDS011;30098;51.880;-0.518;2022-09-24T06:50:20;1.00;;;0.90;;
39434;SDS011;30098;51.880;-0.518;2022-09-24T06:52:46;1.63;;;0.90;;
39434;SDS011;30098;51.880;-0.518;2022-09-24T06:55:12;0.95;;;0.80;;
39434;SDS011;30098;51.880;-0.518;2022-09-24T06:57:37;1.10;;;0.85;;
39434;SDS011;30098;51.880;-0.518;2022-09-24T07:00:03;1.10;;;0.80;;
39434;SDS011;30098;51.880;-0.518;2022-09-24T07:02:29;1.05;;;0.80;;
39434;SDS011;30098;51.880;-0.518;2022-09-24T07:04:55;1.23;;;0.80;;
39434;SDS011;30098;51.880;-0.518;2022-09-24T07:07:21;1.00;;;0.70;;
39434;SDS011;30098;51.880;-0.518;2022-09-24T07:09:58;1.10;;;0.80;;
39434;SDS011;30098;51.880;-0.518;2022-09-24T07:12:27;1.35;;;0.80;;
39434;SDS011;30098;51.880;-0.518;2022-09-24T07:14:54;0.90;;;0.80;;
39434;SDS011;30098;51.880;-0.518;2022-09-24T07:17:20;0.90;;;0.70;;
39434;SDS011;30098;51.880;-0.518;2022-09-24T07:19:45;1.00;;;0.80;;
39434;SDS011;30098;51.880;-0.518;2022-09-24T07:22:10;0.95;;;0.73;;
39434;SDS011;30098;51.880;-0.518;2022-09-24T07:24:36;1.15;;;0.80;;
39434;SDS011;30098;51.880;-0.518;2022-09-24T07:27:05;0.70;;;0.70;;
39434;SDS011;30098;51.880;-0.518;2022-09-24T07:29:31;0.98;;;0.80;;
39434;SDS011;30098;51.880;-0.518;2022-09-24T07:31:57;1.60;;;0.90;;
39434;SDS011;30098;51.880;-0.518;2022-09-24T07:34:22;1.23;;;0.90;;
39434;SDS011;30098;51.880;-0.518;2022-09-24T07:36:48;1.08;;;0.80;;
39434;SDS011;30098;51.880;-0.518;2022-09-24T07:39:13;0.90;;;0.70;;
39434;SDS011;30098;51.880;-0.518;2022-09-24T07:41:39;1.33;;;1.10;;
39434;SDS011;30098;51.880;-0.518;2022-09-24T07:44:06;0.80;;;0.70;;
39434;SDS011;30098;51.880;-0.518;2022-09-24T07:46:32;0.90;;;0.70;;
39434;SDS011;30098;51.880;-0.518;2022-09-24T07:48:58;1.00;;;0.75;;
39434;SDS011;30098;51.880;-0.518;2022-09-24T07:51:24;0.85;;;0.70;;
39434;SDS011;30098;51.880;-0.518;2022-09-24T07:53:52;1.40;;;0.75;;
39434;SDS011;30098;51.880;-0.518;2022-09-24T07:56:19;1.15;;;0.80;;
39434;SDS011;30098;51.880;-0.518;2022-09-24T07:58:49;0.80;;;0.70;;
39434;SDS011;30098;51.880;-0.518;2022-09-24T08:01:16;0.85;;;0.65;;
39434;SDS011;30098;51.880;-0.518;2022-09-24T08:03:44;0.90;;;0.73;;
39434;SDS011;30098;51.880;-0.518;2022-09-24T08:06:11;1.08;;;0.80;;
39434;SDS011;30098;51.880;-0.518;2022-09-24T08:08:37;1.08;;;0.70;;
39434;SDS011;30098;51.880;-0.518;2022-09-24T08:11:04;0.98;;;0.70;;
39434;SDS011;30098;51.880;-0.518;2022-09-24T08:13:34;0.98;;;0.60;;
39434;SDS011;30098;51.880;-0.518;2022-09-24T08:16:01;1.02;;;0.80;;
39434;SDS011;30098;51.880;-0.518;2022-09-24T08:18:28;1.02;;;0.70;;
39434;SDS011;30098;51.880;-0.518;2022-09-24T08:20:56;1.00;;;0.70;;
39434;SDS011;30098;51.880;-0.518;2022-09-24T08:23:31;0.90;;;0.73;;
39434;SDS011;30098;51.880;-0.518;2022-09-24T08:25:57;1.00;;;0.82;;
39434;SDS011;30098;51.880;-0.518;2022-09-24T08:28:24;1.40;;;0.90;;
39434;SDS011;30098;51.880;-0.518;2022-09-24T08:30:49;0.98;;;0.75;;
39434;SDS011;30098;51.880;-0.518;2022-09-24T08:33:15;1.13;;;0.88;;
39434;SDS011;30098;51.880;-0.518;2022-09-24T08:35:41;1.00;;;0.77;;
39434;SDS011;30098;51.880;-0.518;2022-09-24T08:38:07;1.17;;;0.80;;
39434;SDS011;30098;51.880;-0.518;2022-09-24T08:40:37;1.23;;;0.82;;
39434;SDS011;30098;51.880;-0.518;2022-09-24T08:43:28;1.25;;;0.90;;
39434;SDS011;30098;51.880;-0.518;2022-09-24T08:45:59;1.40;;;0.70;;
39434;SDS011;30098;51.880;-0.518;2022-09-24T08:48:48;1.27;;;0.70;;
39434;SDS011;30098;51.880;-0.518;2022-09-24T08:51:18;0.80;;;0.57;;
39434;SDS011;30098;51.880;-0.518;2022-09-24T08:54:05;1.27;;;0.93;;
39434;SDS011;30098;51.880;-0.518;2022-09-24T08:56:37;0.80;;;0.70;;
39434;SDS011;30098;51.880;-0.518;2022-09-24T08:59:27;0.88;;;0.70;;
39434;SDS011;30098;51.880;-0.518;2022-09-24T09:10:38;1.83;;;0.95;;
39434;SDS011;30098;51.880;-0.518;2022-09-24T09:13:08;0.85;;;0.77;;
39434;SDS011;30098;51.880;-0.518;2022-09-24T09:15:40;1.23;;;0.82;;
39434;SDS011;30098;51.880;-0.518;2022-09-24T09:20:45;1.27;;;0.88;;
39434;SDS011;30098;51.880;-0.518;2022-09-24T09:23:15;0.88;;;0.70;;
39434;SDS011;30098;51.880;-0.518;2022-09-24T09:25:45;1.17;;;0.75;;
39434;SDS011;30098;51.880;-0.518;2022-09-24T09:28:17;1.02;;;0.88;;
39434;SDS011;30098;51.880;-0.518;2022-09-24T09:33:29;1.27;;;0.80;;
39434;SDS011;30098;51.880;-0.518;2022-09-24T09:41:28;1.30;;;0.80;;
39434;SDS011;30098;51.880;-0.518;2022-09-24T09:43:59;1.15;;;0.70;;
39434;SDS011;30098;51.880;-0.518;2022-09-24T09:46:36;0.85;;;0.60;;
39434;SDS011;30098;51.880;-0.518;2022-09-24T09:49:08;1.20;;;0.82;;
39434;SDS011;30098;51.880;-0.518;2022-09-24T09:51:35;0.90;;;0.60;;
39434;SDS011;30098;51.880;-0.518;2022-09-24T09:54:04;1.00;;;0.80;;
39434;SDS011;30098;51.880;-0.518;2022-09-24T09:56:32;0.73;;;0.60;;
39434;SDS011;30098;51.880;-0.518;2022-09-24T09:59:07;1.33;;;0.60;;
39434;SDS011;30098;51.880;-0.518;2022-09-24T10:01:43;0.88;;;0.70;;
39434;SDS011;30098;51.880;-0.518;2022-09-24T10:04:23;0.98;;;0.70;;
39434;SDS011;30098;51.880;-0.518;2022-09-24T10:09:59;2.35;;;0.90;;
39434;SDS011;30098;51.880;-0.518;2022-09-24T10:12:40;1.17;;;0.80;;
39434;SDS011;30098;51.880;-0.518;2022-09-24T10:17:45;1.05;;;0.73;;
39434;SDS011;30098;51.880;-0.518;2022-09-24T10:20:26;1.42;;;0.75;;
39434;SDS011;30098;51.880;-0.518;2022-09-24T10:23:02;1.25;;;0.70;;
39434;SDS011;30098;51.880;-0.518;2022-09-24T10:25:31;1.10;;;0.68;;
39434;SDS011;30098;51.880;-0.518;2022-09-24T10:28:09;0.90;;;0.80;;
39434;SDS011;30098;51.880;-0.518;2022-09-24T10:31:02;1.08;;;0.70;;
39434;SDS011;30098;51.880;-0.518;2022-09-24T10:33:34;1.13;;;0.80;;
39434;SDS011;30098;51.880;-0.518;2022-09-24T10:36:06;0.80;;;0.63;;
39434;SDS011;30098;51.880;-0.518;2022-09-24T10:38:40;0.93;;;0.75;;
39434;SDS011;30098;51.880;-0.518;2022-09-24T10:41:15;0.93;;;0.68;;
39434;SDS011;30098;51.880;-0.518;2022-09-24T10:43:52;1.08;;;0.63;;
39434;SDS011;30098;51.880;-0.518;2022-09-24T10:46:24;0.93;;;0.80;;
39434;SDS011;30098;51.880;-0.518;2022-09-24T10:55:12;1.23;;;0.90;;
39434;SDS011;30098;51.880;-0.518;2022-09-24T11:00:29;1.27;;;0.70;;
39434;SDS011;30098;51.880;-0.518;2022-09-24T11:06:10;1.00;;;0.60;;
39434;SDS011;30098;51.880;-0.518;2022-09-24T11:15:02;0.80;;;0.57;;
39434;SDS011;30098;51.880;-0.518;2022-09-24T11:18:06;0.95;;;0.60;;
39434;SDS011;30098;51.880;-0.518;2022-09-24T11:34:45;0.90;;;0.70;;
39434;SDS011;30098;51.880;-0.518;2022-09-24T11:40:16;1.35;;;0.82;;
39434;SDS011;30098;51.880;-0.518;2022-09-24T11:43:09;1.05;;;0.68;;
39434;SDS011;30098;51.880;-0.518;2022-09-24T11:45:50;1.02;;;0.70;;
39434;SDS011;30098;51.880;-0.518;2022-09-24T11:51:03;0.77;;;0.50;;
39434;SDS011;30098;51.880;-0.518;2022-09-24T11:53:36;0.95;;;0.60;;
39434;SDS011;30098;51.880;-0.518;2022-09-24T11:58:43;1.05;;;0.60;;
39434;SDS011;30098;51.880;-0.518;2022-09-24T12:01:15;0.85;;;0.60;;
39434;SDS011;30098;51.880;-0.518;2022-09-24T12:03:55;1.15;;;0.75;;
39434;SDS011;30098;51.880;-0.518;2022-09-24T12:06:32;1.27;;;0.65;;
39434;SDS011;30098;51.880;-0.518;2022-09-24T12:09:15;0.90;;;0.60;;
39434;SDS011;30098;51.880;-0.518;2022-09-24T12:12:07;1.05;;;0.43;;
39434;SDS011;30098;51.880;-0.518;2022-09-24T12:14:47;0.77;;;0.50;;
39434;SDS011;30098;51.880;-0.518;2022-09-24T12:20:48;0.90;;;0.50;;
39434;SDS011;30098;51.880;-0.518;2022-09-24T12:23:19;1.27;;;0.60;;
39434;SDS011;30098;51.880;-0.518;2022-09-24T12:25:52;1.05;;;0.55;;
39434;SDS011;30098;51.880;-0.518;2022-09-24T12:28:21;1.02;;;0.60;;
39434;SDS011;30098;51.880;-0.518;2022-09-24T12:31:13;0.77;;;0.50;;
39434;SDS011;30098;51.880;-0.518;2022-09-24T12:34:04;1.23;;;0.50;;
39434;SDS011;30098;51.880;-0.518;2022-09-24T12:39:59;0.60;;;0.50;;
39434;SDS011;30098;51.880;-0.518;2022-09-24T12:42:23;0.70;;;0.50;;
39434;SDS011;30098;51.880;-0.518;2022-09-24T12:44:57;0.70;;;0.52;;
39434;SDS011;30098;51.880;-0.518;2022-09-24T12:47:28;0.80;;;0.52;;
39434;SDS011;30098;51.880;-0.518;2022-09-24T12:49:58;0.90;;;0.57;;
39434;SDS011;30098;51.880;-0.518;2022-09-24T12:52:39;0.73;;;0.52;;
39434;SDS011;30098;51.880;-0.518;2022-09-24T12:57:58;0.77;;;0.50;;
39434;SDS011;30098;51.880;-0.518;2022-09-24T13:06:03;1.05;;;0.60;;
39434;SDS011;30098;51.880;-0.518;2022-09-24T13:08:45;0.75;;;0.50;;
39434;SDS011;30098;51.880;-0.518;2022-09-24T13:16:38;0.60;;;0.40;;
39434;SDS011;30098;51.880;-0.518;2022-09-24T13:19:54;1.33;;;0.60;;
39434;SDS011;30098;51.880;-0.518;2022-09-24T13:21:59;1.58;;;0.60;;
39434;SDS011;30098;51.880;-0.518;2022-09-24T13:24:27;1.05;;;0.60;;
39434;SDS011;30098;51.880;-0.518;2022-09-24T13:27:06;0.98;;;0.43;;
39434;SDS011;30098;51.880;-0.518;2022-09-24T13:29:36;0.80;;;0.50;;
39434;SDS011;30098;51.880;-0.518;2022-09-24T13:32:04;0.80;;;0.60;;
39434;SDS011;30098;51.880;-0.518;2022-09-24T13:34:29;0.57;;;0.45;;
39434;SDS011;30098;51.880;-0.518;2022-09-24T13:40:03;1.30;;;0.57;;
39434;SDS011;30098;51.880;-0.518;2022-09-24T13:43:10;0.57;;;0.50;;
39434;SDS011;30098;51.880;-0.518;2022-09-24T13:45:16;0.68;;;0.40;;
39434;SDS011;30098;51.880;-0.518;2022-09-24T13:47:45;0.55;;;0.40;;
39434;SDS011;30098;51.880;-0.518;2022-09-24T13:50:16;1.27;;;0.60;;
39434;SDS011;30098;51.880;-0.518;2022-09-24T13:52:57;0.95;;;0.47;;
39434;SDS011;30098;51.880;-0.518;2022-09-24T13:55:51;0.68;;;0.40;;
39434;SDS011;30098;51.880;-0.518;2022-09-24T13:58:30;1.00;;;0.52;;
39434;SDS011;30098;51.880;-0.518;2022-09-24T14:01:02;1.00;;;0.60;;
39434;SDS011;30098;51.880;-0.518;2022-09-24T14:03:33;0.50;;;0.45;;
39434;SDS011;30098;51.880;-0.518;2022-09-24T14:06:01;0.82;;;0.50;;
39434;SDS011;30098;51.880;-0.518;2022-09-24T14:08:34;0.55;;;0.40;;
39434;SDS011;30098;51.880;-0.518;2022-09-24T14:11:04;0.68;;;0.40;;
39434;SDS011;30098;51.880;-0.518;2022-09-24T14:13:34;0.70;;;0.47;;
39434;SDS011;30098;51.880;-0.518;2022-09-24T14:16:09;0.60;;;0.40;;
39434;SDS011;30098;51.880;-0.518;2022-09-24T14:18:38;0.73;;;0.43;;
39434;SDS011;30098;51.880;-0.518;2022-09-24T14:29:12;0.95;;;0.50;;
39434;SDS011;30098;51.880;-0.518;2022-09-24T14:31:45;0.80;;;0.50;;
39434;SDS011;30098;51.880;-0.518;2022-09-24T14:34:22;0.47;;;0.38;;
39434;SDS011;30098;51.880;-0.518;2022-09-24T14:36:57;0.75;;;0.47;;
39434;SDS011;30098;51.880;-0.518;2022-09-24T14:39:31;0.50;;;0.30;;
39434;SDS011;30098;51.880;-0.518;2022-09-24T14:42:06;0.70;;;0.40;;
39434;SDS011;30098;51.880;-0.518;2022-09-24T14:44:35;0.70;;;0.40;;
39434;SDS011;30098;51.880;-0.518;2022-09-24T14:47:03;0.50;;;0.32;;
39434;SDS011;30098;51.880;-0.518;2022-09-24T14:49:30;0.70;;;0.50;;
39434;SDS011;30098;51.880;-0.518;2022-09-24T14:52:20;0.85;;;0.47;;
39434;SDS011;30098;51.880;-0.518;2022-09-24T14:55:16;0.85;;;0.50;;
39434;SDS011;30098;51.880;-0.518;2022-09-24T14:57:46;0.68;;;0.47;;
39434;SDS011;30098;51.880;-0.518;2022-09-24T15:05:27;0.43;;;0.40;;
39434;SDS011;30098;51.880;-0.518;2022-09-24T15:10:38;0.50;;;0.40;;
39434;SDS011;30098;51.880;-0.518;2022-09-24T15:13:11;0.52;;;0.40;;
39434;SDS011;30098;51.880;-0.518;2022-09-24T15:15:38;1.33;;;0.50;;
39434;SDS011;30098;51.880;-0.518;2022-09-24T15:18:06;0.70;;;0.30;;
39434;SDS011;30098;51.880;-0.518;2022-09-24T15:20:34;0.55;;;0.40;;
39434;SDS011;30098;51.880;-0.518;2022-09-24T15:23:01;0.50;;;0.30;;
39434;SDS011;30098;51.880;-0.518;2022-09-24T15:25:27;1.05;;;0.47;;
39434;SDS011;30098;51.880;-0.518;2022-09-24T15:27:53;0.90;;;0.43;;
39434;SDS011;30098;51.880;-0.518;2022-09-24T15:30:19;0.70;;;0.40;;
39434;SDS011;30098;51.880;-0.518;2022-09-24T15:32:46;0.73;;;0.40;;
39434;SDS011;30098;51.880;-0.518;2022-09-24T15:35:14;1.00;;;0.40;;
39434;SDS011;30098;51.880;-0.518;2022-09-24T15:37:40;0.82;;;0.43;;
39434;SDS011;30098;51.880;-0.518;2022-09-24T15:40:24;0.68;;;0.50;;
39434;SDS011;30098;51.880;-0.518;2022-09-24T15:42:54;0.60;;;0.43;;
39434;SDS011;30098;51.880;-0.518;2022-09-24T15:45:20;0.95;;;0.50;;
39434;SDS011;30098;51.880;-0.518;2022-09-24T15:47:48;0.40;;;0.40;;
39434;SDS011;30098;51.880;-0.518;2022-09-24T15:50:14;1.00;;;0.55;;
39434;SDS011;30098;51.880;-0.518;2022-09-24T15:52:42;0.65;;;0.40;;
39434;SDS011;30098;51.880;-0.518;2022-09-24T15:55:16;0.40;;;0.40;;
39434;SDS011;30098;51.880;-0.518;2022-09-24T15:57:43;0.47;;;0.30;;
39434;SDS011;30098;51.880;-0.518;2022-09-24T16:00:18;0.88;;;0.40;;
39434;SDS011;30098;51.880;-0.518;2022-09-24T16:02:46;1.23;;;0.60;;
39434;SDS011;30098;51.880;-0.518;2022-09-24T16:05:14;0.60;;;0.40;;
39434;SDS011;30098;51.880;-0.518;2022-09-24T16:07:41;0.60;;;0.30;;
39434;SDS011;30098;51.880;-0.518;2022-09-24T16:10:07;0.52;;;0.30;;
39434;SDS011;30098;51.880;-0.518;2022-09-24T16:12:34;2.22;;;0.60;;
39434;SDS011;30098;51.880;-0.518;2022-09-24T16:15:00;1.25;;;0.50;;
39434;SDS011;30098;51.880;-0.518;2022-09-24T16:17:25;1.15;;;0.50;;
39434;SDS011;30098;51.880;-0.518;2022-09-24T16:19:52;0.82;;;0.40;;
39434;SDS011;30098;51.880;-0.518;2022-09-24T16:22:18;0.93;;;0.50;;
39434;SDS011;30098;51.880;-0.518;2022-09-24T16:24:44;0.55;;;0.38;;
39434;SDS011;30098;51.880;-0.518;2022-09-24T16:27:09;0.90;;;0.50;;
39434;SDS011;30098;51.880;-0.518;2022-09-24T16:29:35;0.80;;;0.40;;
39434;SDS011;30098;51.880;-0.518;2022-09-24T16:32:00;0.40;;;0.35;;
39434;SDS011;30098;51.880;-0.518;2022-09-24T16:34:27;0.70;;;0.40;;
39434;SDS011;30098;51.880;-0.518;2022-09-24T16:36:52;0.50;;;0.40;;
39434;SDS011;30098;51.880;-0.518;2022-09-24T16:39:18;0.60;;;0.40;;
39434;SDS011;30098;51.880;-0.518;2022-09-24T16:41:47;0.30;;;0.20;;
39434;SDS011;30098;51.880;-0.518;2022-09-24T16:44:13;0.47;;;0.30;;
39434;SDS011;30098;51.880;-0.518;2022-09-24T16:46:39;0.57;;;0.40;;
39434;SDS011;30098;51.880;-0.518;2022-09-24T16:49:05;0.70;;;0.50;;
39434;SDS011;30098;51.880;-0.518;2022-09-24T16:51:31;1.13;;;0.43;;
39434;SDS011;30098;51.880;-0.518;2022-09-24T16:53:56;0.70;;;0.40;;